sensor_id;sensor_type;location;lat;lon;timestamp;P1;durP1;ratioP1;P2;durP2;ratioP2
69203;SDS011;56317;27.658;85.326;2023-11-22T00:01:20;41.55;;;20.75;;
69203;SDS011;56317;27.658;85.326;2023-11-22T00:03:47;38.90;;;20.95;;
69203;SDS011;56317;27.658;85.326;2023-11-22T00:06:15;37.30;;;19.05;;
69203;SDS011;56317;27.658;85.326;2023-11-22T00:08:46;43.50;;;20.33;;
69203;SDS011;56317;27.658;85.326;2023-11-22T00:11:13;52.63;;;22.58;;
69203;SDS011;56317;27.658;85.326;2023-11-22T00:13:40;42.08;;;21.48;;
69203;SDS011;56317;27.658;85.326;2023-11-22T00:16:07;46.13;;;23.88;;
69203;SDS011;56317;27.658;85.326;2023-11-22T00:18:35;52.63;;;24.92;;
69203;SDS011;56317;27.658;85.326;2023-11-22T00:21:06;52.13;;;24.38;;
69203;SDS011;56317;27.658;85.326;2023-11-22T00:23:33;53.15;;;26.88;;
69203;SDS011;56317;27.658;85.326;2023-11-22T00:26:00;49.85;;;25.92;;
69203;SDS011;56317;27.658;85.326;2023-11-22T00:28:27;50.70;;;24.63;;
69203;SDS011;56317;27.658;85.326;2023-11-22T00:30:54;50.38;;;24.55;;
69203;SDS011;56317;27.658;85.326;2023-11-22T00:33:21;54.60;;;25.50;;
69203;SDS011;56317;27.658;85.326;2023-11-22T00:35:48;47.70;;;24.05;;
69203;SDS011;56317;27.658;85.326;2023-11-22T00:38:16;58.20;;;24.35;;
69203;SDS011;56317;27.658;85.326;2023-11-22T00:40:43;46.85;;;23.00;;
69203;SDS011;56317;27.658;85.326;2023-11-22T00:43:11;51.13;;;23.77;;
69203;SDS011;56317;27.658;85.326;2023-11-22T00:45:38;49.70;;;24.27;;
69203;SDS011;56317;27.658;85.326;2023-11-22T00:48:05;46.97;;;23.77;;
69203;SDS011;56317;27.658;85.326;2023-11-22T00:50:33;50.38;;;25.25;;
69203;SDS011;56317;27.658;85.326;2023-11-22T00:53:02;48.67;;;24.05;;
69203;SDS011;56317;27.658;85.326;2023-11-22T00:55:29;53.85;;;25.48;;
69203;SDS011;56317;27.658;85.326;2023-11-22T00:57:56;47.47;;;26.13;;
69203;SDS011;56317;27.658;85.326;2023-11-22T01:00:29;58.80;;;27.40;;
69203;SDS011;56317;27.658;85.326;2023-11-22T01:02:56;50.25;;;26.05;;
69203;SDS011;56317;27.658;85.326;2023-11-22T01:05:23;53.10;;;25.25;;
69203;SDS011;56317;27.658;85.326;2023-11-22T01:07:52;54.22;;;25.30;;
69203;SDS011;56317;27.658;85.326;2023-11-22T01:10:19;50.83;;;25.83;;
69203;SDS011;56317;27.658;85.326;2023-11-22T01:12:46;54.08;;;27.08;;
69203;SDS011;56317;27.658;85.326;2023-11-22T01:15:13;45.72;;;22.63;;
69203;SDS011;56317;27.658;85.326;2023-11-22T01:17:40;41.42;;;22.00;;
69203;SDS011;56317;27.658;85.326;2023-11-22T01:20:07;44.35;;;21.50;;
69203;SDS011;56317;27.658;85.326;2023-11-22T01:25:07;44.55;;;22.67;;
69203;SDS011;56317;27.658;85.326;2023-11-22T01:27:35;55.25;;;30.70;;
69203;SDS011;56317;27.658;85.326;2023-11-22T01:30:02;52.58;;;29.52;;
69203;SDS011;56317;27.658;85.326;2023-11-22T01:32:33;58.75;;;31.13;;
69203;SDS011;56317;27.658;85.326;2023-11-22T01:35:03;56.30;;;31.38;;
69203;SDS011;56317;27.658;85.326;2023-11-22T01:37:31;64.65;;;32.88;;
69203;SDS011;56317;27.658;85.326;2023-11-22T01:39:58;61.53;;;32.65;;
69203;SDS011;56317;27.658;85.326;2023-11-22T01:42:27;58.17;;;30.20;;
69203;SDS011;56317;27.658;85.326;2023-11-22T01:44:54;65.80;;;31.02;;
69203;SDS011;56317;27.658;85.326;2023-11-22T01:47:23;54.22;;;30.02;;
69203;SDS011;56317;27.658;85.326;2023-11-22T01:49:52;55.95;;;29.77;;
69203;SDS011;56317;27.658;85.326;2023-11-22T01:52:19;55.50;;;28.38;;
69203;SDS011;56317;27.658;85.326;2023-11-22T01:54:46;53.47;;;30.90;;
69203;SDS011;56317;27.658;85.326;2023-11-22T01:57:14;57.45;;;29.85;;
69203;SDS011;56317;27.658;85.326;2023-11-22T01:59:42;55.80;;;28.90;;
69203;SDS011;56317;27.658;85.326;2023-11-22T02:02:12;49.28;;;24.40;;
69203;SDS011;56317;27.658;85.326;2023-11-22T02:04:39;48.97;;;24.52;;
69203;SDS011;56317;27.658;85.326;2023-11-22T02:07:06;43.28;;;22.38;;
69203;SDS011;56317;27.658;85.326;2023-11-22T02:09:35;45.80;;;25.48;;
69203;SDS011;56317;27.658;85.326;2023-11-22T02:12:04;35.23;;;20.77;;
69203;SDS011;56317;27.658;85.326;2023-11-22T02:14:33;44.65;;;25.33;;
69203;SDS011;56317;27.658;85.326;2023-11-22T02:17:00;54.38;;;27.58;;
69203;SDS011;56317;27.658;85.326;2023-11-22T02:19:28;59.60;;;30.83;;
69203;SDS011;56317;27.658;85.326;2023-11-22T02:21:59;58.13;;;31.90;;
69203;SDS011;56317;27.658;85.326;2023-11-22T02:24:27;54.30;;;31.40;;
69203;SDS011;56317;27.658;85.326;2023-11-22T02:26:55;61.47;;;31.90;;
69203;SDS011;56317;27.658;85.326;2023-11-22T02:29:22;61.97;;;32.28;;
69203;SDS011;56317;27.658;85.326;2023-11-22T02:31:49;56.50;;;30.00;;
69203;SDS011;56317;27.658;85.326;2023-11-22T02:34:16;57.35;;;29.63;;
69203;SDS011;56317;27.658;85.326;2023-11-22T02:36:43;64.68;;;31.85;;
69203;SDS011;56317;27.658;85.326;2023-11-22T02:39:10;57.33;;;29.27;;
69203;SDS011;56317;27.658;85.326;2023-11-22T02:41:40;57.47;;;28.65;;
69203;SDS011;56317;27.658;85.326;2023-11-22T02:44:08;58.47;;;31.98;;
69203;SDS011;56317;27.658;85.326;2023-11-22T02:46:35;56.75;;;29.75;;
69203;SDS011;56317;27.658;85.326;2023-11-22T02:49:02;66.40;;;34.47;;
69203;SDS011;56317;27.658;85.326;2023-11-22T02:51:29;80.95;;;37.22;;
69203;SDS011;56317;27.658;85.326;2023-11-22T02:53:57;67.40;;;34.75;;
69203;SDS011;56317;27.658;85.326;2023-11-22T02:56:25;57.25;;;30.38;;
69203;SDS011;56317;27.658;85.326;2023-11-22T02:58:54;57.22;;;29.38;;
69203;SDS011;56317;27.658;85.326;2023-11-22T03:01:22;58.45;;;27.70;;
69203;SDS011;56317;27.658;85.326;2023-11-22T03:03:51;54.25;;;29.27;;
69203;SDS011;56317;27.658;85.326;2023-11-22T03:06:19;55.15;;;31.25;;
69203;SDS011;56317;27.658;85.326;2023-11-22T03:08:46;61.50;;;31.70;;
69203;SDS011;56317;27.658;85.326;2023-11-22T03:11:34;60.90;;;31.48;;
69203;SDS011;56317;27.658;85.326;2023-11-22T03:14:22;68.28;;;31.95;;
69203;SDS011;56317;27.658;85.326;2023-11-22T03:16:50;65.75;;;33.08;;
69203;SDS011;56317;27.658;85.326;2023-11-22T03:19:18;59.50;;;32.83;;
69203;SDS011;56317;27.658;85.326;2023-11-22T03:21:46;66.25;;;35.17;;
69203;SDS011;56317;27.658;85.326;2023-11-22T03:24:14;68.60;;;34.17;;
69203;SDS011;56317;27.658;85.326;2023-11-22T03:26:43;56.72;;;32.45;;
69203;SDS011;56317;27.658;85.326;2023-11-22T03:29:10;71.95;;;35.88;;
69203;SDS011;56317;27.658;85.326;2023-11-22T03:31:38;66.10;;;33.88;;
69203;SDS011;56317;27.658;85.326;2023-11-22T03:34:05;61.13;;;33.13;;
69203;SDS011;56317;27.658;85.326;2023-11-22T03:36:52;57.97;;;32.95;;
69203;SDS011;56317;27.658;85.326;2023-11-22T03:39:20;59.83;;;34.05;;
69203;SDS011;56317;27.658;85.326;2023-11-22T03:41:54;58.70;;;32.13;;
69203;SDS011;56317;27.658;85.326;2023-11-22T03:44:30;60.72;;;32.90;;
69203;SDS011;56317;27.658;85.326;2023-11-22T03:46:57;63.22;;;32.75;;
69203;SDS011;56317;27.658;85.326;2023-11-22T03:49:25;67.28;;;33.13;;
69203;SDS011;56317;27.658;85.326;2023-11-22T03:51:54;53.13;;;29.38;;
69203;SDS011;56317;27.658;85.326;2023-11-22T03:54:23;55.88;;;30.55;;
69203;SDS011;56317;27.658;85.326;2023-11-22T03:56:51;55.28;;;30.48;;
69203;SDS011;56317;27.658;85.326;2023-11-22T03:59:19;60.83;;;30.45;;
69203;SDS011;56317;27.658;85.326;2023-11-22T04:01:47;46.58;;;27.65;;
69203;SDS011;56317;27.658;85.326;2023-11-22T04:04:14;54.28;;;27.52;;
69203;SDS011;56317;27.658;85.326;2023-11-22T04:06:42;45.05;;;25.02;;
69203;SDS011;56317;27.658;85.326;2023-11-22T04:09:18;45.55;;;24.58;;
69203;SDS011;56317;27.658;85.326;2023-11-22T04:11:46;39.17;;;22.73;;
69203;SDS011;56317;27.658;85.326;2023-11-22T04:14:13;36.97;;;21.25;;
69203;SDS011;56317;27.658;85.326;2023-11-22T04:16:40;43.65;;;23.02;;
69203;SDS011;56317;27.658;85.326;2023-11-22T04:19:07;42.33;;;23.70;;
69203;SDS011;56317;27.658;85.326;2023-11-22T04:21:35;41.80;;;23.63;;
69203;SDS011;56317;27.658;85.326;2023-11-22T04:24:02;42.47;;;23.80;;
69203;SDS011;56317;27.658;85.326;2023-11-22T04:26:29;47.80;;;22.33;;
69203;SDS011;56317;27.658;85.326;2023-11-22T04:28:58;48.38;;;24.75;;
69203;SDS011;56317;27.658;85.326;2023-11-22T04:31:27;50.58;;;25.83;;
69203;SDS011;56317;27.658;85.326;2023-11-22T04:33:55;45.63;;;23.92;;
69203;SDS011;56317;27.658;85.326;2023-11-22T04:36:26;43.17;;;24.60;;
69203;SDS011;56317;27.658;85.326;2023-11-22T04:38:53;37.55;;;19.67;;
69203;SDS011;56317;27.658;85.326;2023-11-22T04:41:20;43.53;;;22.30;;
69203;SDS011;56317;27.658;85.326;2023-11-22T04:43:48;38.50;;;20.63;;
69203;SDS011;56317;27.658;85.326;2023-11-22T04:46:15;38.90;;;22.20;;
69203;SDS011;56317;27.658;85.326;2023-11-22T04:48:43;42.85;;;23.30;;
69203;SDS011;56317;27.658;85.326;2023-11-22T04:51:10;43.50;;;21.88;;
69203;SDS011;56317;27.658;85.326;2023-11-22T04:53:38;34.70;;;19.27;;
69203;SDS011;56317;27.658;85.326;2023-11-22T04:56:05;37.95;;;19.92;;
69203;SDS011;56317;27.658;85.326;2023-11-22T04:58:33;31.42;;;16.95;;
69203;SDS011;56317;27.658;85.326;2023-11-22T05:01:01;32.92;;;16.38;;
69203;SDS011;56317;27.658;85.326;2023-11-22T05:03:32;37.25;;;18.42;;
69203;SDS011;56317;27.658;85.326;2023-11-22T05:05:59;31.75;;;16.60;;
69203;SDS011;56317;27.658;85.326;2023-11-22T05:08:26;25.50;;;13.35;;
69203;SDS011;56317;27.658;85.326;2023-11-22T05:10:53;24.40;;;13.43;;
69203;SDS011;56317;27.658;85.326;2023-11-22T05:13:21;22.13;;;13.07;;
69203;SDS011;56317;27.658;85.326;2023-11-22T05:15:48;32.03;;;17.45;;
69203;SDS011;56317;27.658;85.326;2023-11-22T05:18:16;34.92;;;19.77;;
69203;SDS011;56317;27.658;85.326;2023-11-22T05:20:43;33.55;;;18.30;;
69203;SDS011;56317;27.658;85.326;2023-11-22T05:23:10;32.40;;;17.48;;
69203;SDS011;56317;27.658;85.326;2023-11-22T05:25:39;39.45;;;18.52;;
69203;SDS011;56317;27.658;85.326;2023-11-22T05:28:06;28.10;;;15.65;;
69203;SDS011;56317;27.658;85.326;2023-11-22T05:30:33;29.65;;;16.52;;
69203;SDS011;56317;27.658;85.326;2023-11-22T05:33:00;30.40;;;17.23;;
69203;SDS011;56317;27.658;85.326;2023-11-22T05:35:30;35.67;;;17.00;;
69203;SDS011;56317;27.658;85.326;2023-11-22T05:37:57;29.08;;;15.63;;
69203;SDS011;56317;27.658;85.326;2023-11-22T05:40:24;26.67;;;15.38;;
69203;SDS011;56317;27.658;85.326;2023-11-22T05:42:51;29.70;;;15.02;;
69203;SDS011;56317;27.658;85.326;2023-11-22T05:45:18;31.05;;;15.88;;
69203;SDS011;56317;27.658;85.326;2023-11-22T05:47:46;29.40;;;14.45;;
69203;SDS011;56317;27.658;85.326;2023-11-22T05:50:13;24.92;;;13.88;;
69203;SDS011;56317;27.658;85.326;2023-11-22T05:52:41;25.90;;;15.38;;
69203;SDS011;56317;27.658;85.326;2023-11-22T05:55:10;29.95;;;16.48;;
69203;SDS011;56317;27.658;85.326;2023-11-22T05:57:40;30.77;;;16.30;;
69203;SDS011;56317;27.658;85.326;2023-11-22T06:00:07;31.55;;;15.77;;
69203;SDS011;56317;27.658;85.326;2023-11-22T06:02:35;22.52;;;14.38;;
69203;SDS011;56317;27.658;85.326;2023-11-22T06:05:04;24.23;;;13.43;;
69203;SDS011;56317;27.658;85.326;2023-11-22T06:07:31;25.25;;;13.45;;
69203;SDS011;56317;27.658;85.326;2023-11-22T06:09:59;22.85;;;13.18;;
69203;SDS011;56317;27.658;85.326;2023-11-22T06:12:28;23.87;;;13.90;;
69203;SDS011;56317;27.658;85.326;2023-11-22T06:14:56;21.70;;;12.80;;
69203;SDS011;56317;27.658;85.326;2023-11-22T06:17:23;23.42;;;13.10;;
69203;SDS011;56317;27.658;85.326;2023-11-22T06:19:50;21.42;;;11.57;;
69203;SDS011;56317;27.658;85.326;2023-11-22T06:22:17;24.48;;;13.55;;
69203;SDS011;56317;27.658;85.326;2023-11-22T06:24:46;25.35;;;13.40;;
69203;SDS011;56317;27.658;85.326;2023-11-22T06:27:13;25.23;;;12.90;;
69203;SDS011;56317;27.658;85.326;2023-11-22T06:29:41;25.08;;;14.00;;
69203;SDS011;56317;27.658;85.326;2023-11-22T06:32:12;25.73;;;13.95;;
69203;SDS011;56317;27.658;85.326;2023-11-22T06:34:39;30.52;;;14.07;;
69203;SDS011;56317;27.658;85.326;2023-11-22T06:37:07;25.60;;;14.05;;
69203;SDS011;56317;27.658;85.326;2023-11-22T06:39:34;28.10;;;15.57;;
69203;SDS011;56317;27.658;85.326;2023-11-22T06:42:03;28.75;;;14.13;;
69203;SDS011;56317;27.658;85.326;2023-11-22T06:44:30;25.40;;;14.52;;
69203;SDS011;56317;27.658;85.326;2023-11-22T06:46:57;29.27;;;14.40;;
69203;SDS011;56317;27.658;85.326;2023-11-22T06:49:26;20.85;;;11.85;;
69203;SDS011;56317;27.658;85.326;2023-11-22T06:54:26;18.40;;;9.48;;
69203;SDS011;56317;27.658;85.326;2023-11-22T06:56:54;16.55;;;9.27;;
69203;SDS011;56317;27.658;85.326;2023-11-22T06:59:21;15.73;;;9.13;;
69203;SDS011;56317;27.658;85.326;2023-11-22T07:01:48;16.58;;;10.02;;
69203;SDS011;56317;27.658;85.326;2023-11-22T07:04:15;20.10;;;10.25;;
69203;SDS011;56317;27.658;85.326;2023-11-22T07:06:43;18.73;;;11.07;;
69203;SDS011;56317;27.658;85.326;2023-11-22T07:09:12;18.30;;;10.85;;
69203;SDS011;56317;27.658;85.326;2023-11-22T07:11:39;18.95;;;9.80;;
69203;SDS011;56317;27.658;85.326;2023-11-22T07:14:08;18.90;;;10.15;;
69203;SDS011;56317;27.658;85.326;2023-11-22T07:16:36;13.15;;;8.40;;
69203;SDS011;56317;27.658;85.326;2023-11-22T07:19:04;17.05;;;10.07;;
69203;SDS011;56317;27.658;85.326;2023-11-22T07:21:32;16.90;;;8.52;;
69203;SDS011;56317;27.658;85.326;2023-11-22T07:24:03;17.65;;;8.18;;
69203;SDS011;56317;27.658;85.326;2023-11-22T07:26:32;14.27;;;7.57;;
69203;SDS011;56317;27.658;85.326;2023-11-22T07:28:59;15.95;;;7.88;;
69203;SDS011;56317;27.658;85.326;2023-11-22T07:31:26;14.27;;;8.25;;
69203;SDS011;56317;27.658;85.326;2023-11-22T07:33:54;16.15;;;7.85;;
69203;SDS011;56317;27.658;85.326;2023-11-22T07:36:21;17.45;;;8.90;;
69203;SDS011;56317;27.658;85.326;2023-11-22T07:41:22;14.32;;;7.75;;
69203;SDS011;56317;27.658;85.326;2023-11-22T07:43:49;16.52;;;8.98;;
69203;SDS011;56317;27.658;85.326;2023-11-22T07:46:16;14.07;;;9.10;;
69203;SDS011;56317;27.658;85.326;2023-11-22T07:48:44;15.23;;;8.98;;
69203;SDS011;56317;27.658;85.326;2023-11-22T07:51:13;15.70;;;8.43;;
69203;SDS011;56317;27.658;85.326;2023-11-22T07:53:43;17.67;;;8.77;;
69203;SDS011;56317;27.658;85.326;2023-11-22T07:56:10;16.58;;;8.57;;
69203;SDS011;56317;27.658;85.326;2023-11-22T07:58:38;14.52;;;7.50;;
69203;SDS011;56317;27.658;85.326;2023-11-22T08:01:06;15.48;;;8.25;;
69203;SDS011;56317;27.658;85.326;2023-11-22T08:03:39;19.10;;;9.13;;
69203;SDS011;56317;27.658;85.326;2023-11-22T08:06:11;16.13;;;8.90;;
69203;SDS011;56317;27.658;85.326;2023-11-22T08:08:38;21.20;;;8.82;;
69203;SDS011;56317;27.658;85.326;2023-11-22T08:11:06;18.63;;;9.27;;
69203;SDS011;56317;27.658;85.326;2023-11-22T08:13:50;14.85;;;7.97;;
69203;SDS011;56317;27.658;85.326;2023-11-22T08:16:20;14.23;;;8.70;;
69203;SDS011;56317;27.658;85.326;2023-11-22T08:18:47;17.88;;;8.93;;
69203;SDS011;56317;27.658;85.326;2023-11-22T08:21:15;15.77;;;9.57;;
69203;SDS011;56317;27.658;85.326;2023-11-22T08:23:42;18.75;;;9.38;;
69203;SDS011;56317;27.658;85.326;2023-11-22T08:26:10;18.88;;;9.18;;
69203;SDS011;56317;27.658;85.326;2023-11-22T08:28:37;23.52;;;10.68;;
69203;SDS011;56317;27.658;85.326;2023-11-22T08:31:05;19.67;;;9.35;;
69203;SDS011;56317;27.658;85.326;2023-11-22T08:33:38;18.63;;;9.20;;
69203;SDS011;56317;27.658;85.326;2023-11-22T08:36:28;18.83;;;9.85;;
69203;SDS011;56317;27.658;85.326;2023-11-22T08:38:56;19.05;;;9.43;;
69203;SDS011;56317;27.658;85.326;2023-11-22T08:41:27;21.92;;;9.73;;
69203;SDS011;56317;27.658;85.326;2023-11-22T08:43:56;20.95;;;9.50;;
69203;SDS011;56317;27.658;85.326;2023-11-22T08:46:23;16.48;;;9.43;;
69203;SDS011;56317;27.658;85.326;2023-11-22T08:48:59;18.77;;;9.68;;
69203;SDS011;56317;27.658;85.326;2023-11-22T08:51:27;18.40;;;9.90;;
69203;SDS011;56317;27.658;85.326;2023-11-22T08:53:55;22.42;;;10.40;;
69203;SDS011;56317;27.658;85.326;2023-11-22T08:56:23;24.17;;;10.80;;
69203;SDS011;56317;27.658;85.326;2023-11-22T08:58:50;20.80;;;10.52;;
69203;SDS011;56317;27.658;85.326;2023-11-22T09:01:36;18.35;;;9.80;;
69203;SDS011;56317;27.658;85.326;2023-11-22T09:04:04;18.38;;;10.13;;
69203;SDS011;56317;27.658;85.326;2023-11-22T09:06:33;18.35;;;9.38;;
69203;SDS011;56317;27.658;85.326;2023-11-22T09:09:00;16.55;;;9.52;;
69203;SDS011;56317;27.658;85.326;2023-11-22T09:11:28;17.70;;;10.15;;
69203;SDS011;56317;27.658;85.326;2023-11-22T09:13:57;18.73;;;10.75;;
69203;SDS011;56317;27.658;85.326;2023-11-22T09:16:26;19.17;;;9.85;;
69203;SDS011;56317;27.658;85.326;2023-11-22T09:18:53;16.17;;;9.65;;
69203;SDS011;56317;27.658;85.326;2023-11-22T09:21:23;25.23;;;10.88;;
69203;SDS011;56317;27.658;85.326;2023-11-22T09:23:51;22.70;;;10.93;;
69203;SDS011;56317;27.658;85.326;2023-11-22T09:26:19;25.63;;;11.10;;
69203;SDS011;56317;27.658;85.326;2023-11-22T09:28:46;23.73;;;12.32;;
69203;SDS011;56317;27.658;85.326;2023-11-22T09:31:13;30.20;;;13.43;;
69203;SDS011;56317;27.658;85.326;2023-11-22T09:33:46;23.38;;;12.60;;
69203;SDS011;56317;27.658;85.326;2023-11-22T09:36:13;23.00;;;11.65;;
69203;SDS011;56317;27.658;85.326;2023-11-22T09:38:43;25.55;;;12.15;;
69203;SDS011;56317;27.658;85.326;2023-11-22T09:41:11;25.50;;;12.45;;
69203;SDS011;56317;27.658;85.326;2023-11-22T09:43:39;22.88;;;11.98;;
69203;SDS011;56317;27.658;85.326;2023-11-22T09:46:08;29.30;;;12.98;;
69203;SDS011;56317;27.658;85.326;2023-11-22T09:48:37;27.85;;;12.77;;
69203;SDS011;56317;27.658;85.326;2023-11-22T09:54:06;25.65;;;12.57;;
69203;SDS011;56317;27.658;85.326;2023-11-22T09:56:37;23.77;;;12.68;;
69203;SDS011;56317;27.658;85.326;2023-11-22T10:01:37;28.80;;;13.55;;
69203;SDS011;56317;27.658;85.326;2023-11-22T10:04:04;22.55;;;12.77;;
69203;SDS011;56317;27.658;85.326;2023-11-22T10:06:32;24.50;;;12.73;;
69203;SDS011;56317;27.658;85.326;2023-11-22T10:09:03;26.35;;;12.35;;
69203;SDS011;56317;27.658;85.326;2023-11-22T10:11:36;30.00;;;13.32;;
69203;SDS011;56317;27.658;85.326;2023-11-22T10:14:05;35.65;;;14.18;;
69203;SDS011;56317;27.658;85.326;2023-11-22T10:16:34;35.58;;;15.93;;
69203;SDS011;56317;27.658;85.326;2023-11-22T10:19:03;26.17;;;12.82;;
69203;SDS011;56317;27.658;85.326;2023-11-22T10:21:35;37.15;;;13.48;;
69203;SDS011;56317;27.658;85.326;2023-11-22T10:24:04;26.73;;;13.80;;
69203;SDS011;56317;27.658;85.326;2023-11-22T10:26:35;30.90;;;15.25;;
69203;SDS011;56317;27.658;85.326;2023-11-22T10:29:02;28.98;;;14.95;;
69203;SDS011;56317;27.658;85.326;2023-11-22T10:31:29;31.42;;;15.57;;
69203;SDS011;56317;27.658;85.326;2023-11-22T10:33:56;34.80;;;15.95;;
69203;SDS011;56317;27.658;85.326;2023-11-22T10:36:24;33.63;;;15.77;;
69203;SDS011;56317;27.658;85.326;2023-11-22T10:38:51;31.42;;;14.57;;
69203;SDS011;56317;27.658;85.326;2023-11-22T10:41:20;29.55;;;13.77;;
69203;SDS011;56317;27.658;85.326;2023-11-22T10:43:48;33.10;;;14.27;;
69203;SDS011;56317;27.658;85.326;2023-11-22T10:46:19;31.10;;;14.98;;
69203;SDS011;56317;27.658;85.326;2023-11-22T10:48:48;32.47;;;17.35;;
69203;SDS011;56317;27.658;85.326;2023-11-22T10:51:15;33.55;;;16.00;;
69203;SDS011;56317;27.658;85.326;2023-11-22T10:53:53;31.00;;;16.20;;
69203;SDS011;56317;27.658;85.326;2023-11-22T10:56:20;41.35;;;18.05;;
69203;SDS011;56317;27.658;85.326;2023-11-22T10:58:50;37.15;;;17.77;;
69203;SDS011;56317;27.658;85.326;2023-11-22T11:01:24;34.65;;;18.48;;
69203;SDS011;56317;27.658;85.326;2023-11-22T11:06:26;29.85;;;15.20;;
69203;SDS011;56317;27.658;85.326;2023-11-22T11:08:59;39.35;;;16.60;;
69203;SDS011;56317;27.658;85.326;2023-11-22T11:14:05;41.00;;;17.25;;
69203;SDS011;56317;27.658;85.326;2023-11-22T11:16:35;41.85;;;17.10;;
69203;SDS011;56317;27.658;85.326;2023-11-22T11:19:07;34.30;;;16.75;;
69203;SDS011;56317;27.658;85.326;2023-11-22T11:21:35;45.88;;;16.58;;
69203;SDS011;56317;27.658;85.326;2023-11-22T11:24:03;29.48;;;15.02;;
69203;SDS011;56317;27.658;85.326;2023-11-22T11:26:35;42.17;;;21.23;;
69203;SDS011;56317;27.658;85.326;2023-11-22T11:29:02;38.17;;;17.02;;
69203;SDS011;56317;27.658;85.326;2023-11-22T11:31:33;39.83;;;17.05;;
69203;SDS011;56317;27.658;85.326;2023-11-22T11:34:08;44.08;;;19.23;;
69203;SDS011;56317;27.658;85.326;2023-11-22T11:36:37;39.00;;;17.30;;
69203;SDS011;56317;27.658;85.326;2023-11-22T11:39:07;40.78;;;19.02;;
69203;SDS011;56317;27.658;85.326;2023-11-22T11:41:40;52.28;;;20.00;;
69203;SDS011;56317;27.658;85.326;2023-11-22T11:44:10;41.83;;;20.67;;
69203;SDS011;56317;27.658;85.326;2023-11-22T11:46:40;50.88;;;22.05;;
69203;SDS011;56317;27.658;85.326;2023-11-22T11:49:11;47.97;;;22.08;;
69203;SDS011;56317;27.658;85.326;2023-11-22T11:51:50;50.05;;;22.23;;
69203;SDS011;56317;27.658;85.326;2023-11-22T11:54:20;53.60;;;22.65;;
69203;SDS011;56317;27.658;85.326;2023-11-22T11:56:47;50.38;;;23.65;;
69203;SDS011;56317;27.658;85.326;2023-11-22T11:59:20;43.30;;;22.13;;
69203;SDS011;56317;27.658;85.326;2023-11-22T12:01:52;41.58;;;21.55;;
69203;SDS011;56317;27.658;85.326;2023-11-22T12:04:23;46.63;;;21.85;;
69203;SDS011;56317;27.658;85.326;2023-11-22T12:06:50;54.15;;;23.02;;
69203;SDS011;56317;27.658;85.326;2023-11-22T12:09:25;49.20;;;22.52;;
69203;SDS011;56317;27.658;85.326;2023-11-22T12:11:59;48.75;;;22.80;;
69203;SDS011;56317;27.658;85.326;2023-11-22T12:14:27;55.97;;;22.98;;
69203;SDS011;56317;27.658;85.326;2023-11-22T12:16:57;48.42;;;22.27;;
69203;SDS011;56317;27.658;85.326;2023-11-22T12:19:25;44.55;;;22.15;;
69203;SDS011;56317;27.658;85.326;2023-11-22T12:21:54;42.78;;;20.52;;
69203;SDS011;56317;27.658;85.326;2023-11-22T12:24:22;44.13;;;22.65;;
69203;SDS011;56317;27.658;85.326;2023-11-22T12:26:50;49.65;;;22.67;;
69203;SDS011;56317;27.658;85.326;2023-11-22T12:29:17;38.20;;;19.50;;
69203;SDS011;56317;27.658;85.326;2023-11-22T12:31:49;45.20;;;21.17;;
69203;SDS011;56317;27.658;85.326;2023-11-22T12:34:18;37.40;;;18.42;;
69203;SDS011;56317;27.658;85.326;2023-11-22T12:36:48;36.95;;;20.05;;
69203;SDS011;56317;27.658;85.326;2023-11-22T12:39:15;33.15;;;17.92;;
69203;SDS011;56317;27.658;85.326;2023-11-22T12:41:48;45.10;;;20.23;;
69203;SDS011;56317;27.658;85.326;2023-11-22T12:44:21;40.83;;;19.50;;
69203;SDS011;56317;27.658;85.326;2023-11-22T12:46:52;37.45;;;18.50;;
69203;SDS011;56317;27.658;85.326;2023-11-22T12:49:27;42.40;;;19.80;;
69203;SDS011;56317;27.658;85.326;2023-11-22T12:51:55;38.03;;;19.75;;
69203;SDS011;56317;27.658;85.326;2023-11-22T12:54:22;39.17;;;19.65;;
69203;SDS011;56317;27.658;85.326;2023-11-22T12:56:51;36.75;;;18.00;;
69203;SDS011;56317;27.658;85.326;2023-11-22T12:59:25;41.28;;;19.85;;
69203;SDS011;56317;27.658;85.326;2023-11-22T13:01:55;35.75;;;17.65;;
69203;SDS011;56317;27.658;85.326;2023-11-22T13:04:24;36.08;;;18.92;;
69203;SDS011;56317;27.658;85.326;2023-11-22T13:06:51;38.70;;;18.85;;
69203;SDS011;56317;27.658;85.326;2023-11-22T13:09:19;44.22;;;19.85;;
69203;SDS011;56317;27.658;85.326;2023-11-22T13:11:46;43.83;;;19.25;;
69203;SDS011;56317;27.658;85.326;2023-11-22T13:14:15;41.72;;;20.15;;
69203;SDS011;56317;27.658;85.326;2023-11-22T13:16:42;36.50;;;19.85;;
69203;SDS011;56317;27.658;85.326;2023-11-22T13:19:10;40.80;;;20.65;;
69203;SDS011;56317;27.658;85.326;2023-11-22T13:21:37;44.63;;;20.60;;
69203;SDS011;56317;27.658;85.326;2023-11-22T13:24:08;41.20;;;19.33;;
69203;SDS011;56317;27.658;85.326;2023-11-22T13:26:36;45.30;;;20.33;;
69203;SDS011;56317;27.658;85.326;2023-11-22T13:29:05;47.00;;;22.98;;
69203;SDS011;56317;27.658;85.326;2023-11-22T13:31:32;47.35;;;20.20;;
69203;SDS011;56317;27.658;85.326;2023-11-22T13:33:59;47.15;;;21.98;;
69203;SDS011;56317;27.658;85.326;2023-11-22T13:36:28;51.13;;;21.67;;
69203;SDS011;56317;27.658;85.326;2023-11-22T13:38:58;44.35;;;19.25;;
69203;SDS011;56317;27.658;85.326;2023-11-22T13:41:25;41.33;;;19.77;;
69203;SDS011;56317;27.658;85.326;2023-11-22T13:43:52;44.88;;;18.30;;
69203;SDS011;56317;27.658;85.326;2023-11-22T13:46:22;40.25;;;19.25;;
69203;SDS011;56317;27.658;85.326;2023-11-22T13:48:49;34.33;;;17.48;;
69203;SDS011;56317;27.658;85.326;2023-11-22T13:51:17;39.20;;;17.73;;
69203;SDS011;56317;27.658;85.326;2023-11-22T13:53:44;37.17;;;19.30;;
69203;SDS011;56317;27.658;85.326;2023-11-22T13:56:17;45.03;;;20.83;;
69203;SDS011;56317;27.658;85.326;2023-11-22T13:58:44;36.55;;;18.42;;
69203;SDS011;56317;27.658;85.326;2023-11-22T14:01:11;44.10;;;20.70;;
69203;SDS011;56317;27.658;85.326;2023-11-22T14:03:42;50.55;;;24.40;;
69203;SDS011;56317;27.658;85.326;2023-11-22T14:06:09;38.92;;;20.25;;
69203;SDS011;56317;27.658;85.326;2023-11-22T14:08:39;41.90;;;18.95;;
69203;SDS011;56317;27.658;85.326;2023-11-22T14:11:07;46.85;;;22.38;;
69203;SDS011;56317;27.658;85.326;2023-11-22T14:13:34;49.75;;;23.42;;
69203;SDS011;56317;27.658;85.326;2023-11-22T14:16:01;68.85;;;32.13;;
69203;SDS011;56317;27.658;85.326;2023-11-22T14:18:29;60.75;;;28.05;;
69203;SDS011;56317;27.658;85.326;2023-11-22T14:20:57;62.20;;;25.67;;
69203;SDS011;56317;27.658;85.326;2023-11-22T14:23:24;71.07;;;28.08;;
69203;SDS011;56317;27.658;85.326;2023-11-22T14:25:51;66.65;;;27.27;;
69203;SDS011;56317;27.658;85.326;2023-11-22T14:28:18;54.22;;;24.35;;
69203;SDS011;56317;27.658;85.326;2023-11-22T14:30:45;39.63;;;19.70;;
69203;SDS011;56317;27.658;85.326;2023-11-22T14:33:12;43.85;;;20.88;;
69203;SDS011;56317;27.658;85.326;2023-11-22T14:35:41;38.67;;;18.55;;
69203;SDS011;56317;27.658;85.326;2023-11-22T14:38:09;42.53;;;20.20;;